sensor_id;sensor_type;location;lat;lon;timestamp;temperature;humidity
56137;DHT22;42008;52.934;5.884;2022-12-10T00:01:13;2.10;99.90
56137;DHT22;42008;52.934;5.884;2022-12-10T00:03:38;1.90;99.90
56137;DHT22;42008;52.934;5.884;2022-12-10T00:06:07;1.50;99.90
56137;DHT22;42008;52.934;5.884;2022-12-10T00:08:34;1.50;99.90
56137;DHT22;42008;52.934;5.884;2022-12-10T00:11:02;0.80;99.90
56137;DHT22;42008;52.934;5.884;2022-12-10T00:13:27;1.60;99.90
56137;DHT22;42008;52.934;5.884;2022-12-10T00:15:53;1.20;99.90
56137;DHT22;42008;52.934;5.884;2022-12-10T00:18:18;1.90;99.90
56137;DHT22;42008;52.934;5.884;2022-12-10T00:20:44;2.60;99.90
56137;DHT22;42008;52.934;5.884;2022-12-10T00:23:10;1.30;99.90
56137;DHT22;42008;52.934;5.884;2022-12-10T00:25:35;1.90;99.90
56137;DHT22;42008;52.934;5.884;2022-12-10T00:28:01;1.50;99.90
56137;DHT22;42008;52.934;5.884;2022-12-10T00:30:26;1.90;99.90
56137;DHT22;42008;52.934;5.884;2022-12-10T00:32:52;1.10;99.90
56137;DHT22;42008;52.934;5.884;2022-12-10T00:35:17;1.50;99.90
56137;DHT22;42008;52.934;5.884;2022-12-10T00:37:43;1.40;99.90
56137;DHT22;42008;52.934;5.884;2022-12-10T00:40:09;1.40;99.90
56137;DHT22;42008;52.934;5.884;2022-12-10T00:42:37;2.00;99.90
56137;DHT22;42008;52.934;5.884;2022-12-10T00:45:04;1.80;99.90
56137;DHT22;42008;52.934;5.884;2022-12-10T00:47:30;0.90;99.90
56137;DHT22;42008;52.934;5.884;2022-12-10T00:49:55;0.80;99.90
56137;DHT22;42008;52.934;5.884;2022-12-10T00:52:21;1.80;99.90
56137;DHT22;42008;52.934;5.884;2022-12-10T00:54:47;1.30;99.90
56137;DHT22;42008;52.934;5.884;2022-12-10T00:57:12;1.20;99.90
56137;DHT22;42008;52.934;5.884;2022-12-10T00:59:38;1.80;99.90
56137;DHT22;42008;52.934;5.884;2022-12-10T01:02:03;0.80;99.90
56137;DHT22;42008;52.934;5.884;2022-12-10T01:04:29;1.30;99.90
56137;DHT22;42008;52.934;5.884;2022-12-10T01:06:54;1.40;99.90
56137;DHT22;42008;52.934;5.884;2022-12-10T01:09:22;1.40;99.90
56137;DHT22;42008;52.934;5.884;2022-12-10T01:11:49;0.90;99.90
56137;DHT22;42008;52.934;5.884;2022-12-10T01:14:23;0.70;99.90
56137;DHT22;42008;52.934;5.884;2022-12-10T01:16:53;0.80;99.90
56137;DHT22;42008;52.934;5.884;2022-12-10T01:19:19;1.30;99.90
56137;DHT22;42008;52.934;5.884;2022-12-10T01:21:49;1.40;99.90
56137;DHT22;42008;52.934;5.884;2022-12-10T01:24:15;1.00;99.90
56137;DHT22;42008;52.934;5.884;2022-12-10T01:26:40;2.20;99.90
56137;DHT22;42008;52.934;5.884;2022-12-10T01:29:06;1.00;99.90
56137;DHT22;42008;52.934;5.884;2022-12-10T01:31:36;0.60;99.90
56137;DHT22;42008;52.934;5.884;2022-12-10T01:34:03;1.20;99.90
56137;DHT22;42008;52.934;5.884;2022-12-10T01:36:32;1.50;99.90
56137;DHT22;42008;52.934;5.884;2022-12-10T01:38:59;0.30;99.90
56137;DHT22;42008;52.934;5.884;2022-12-10T01:41:27;0.70;99.90
56137;DHT22;42008;52.934;5.884;2022-12-10T01:46:28;0.70;99.90
56137;DHT22;42008;52.934;5.884;2022-12-10T01:48:53;-0.10;99.90
56137;DHT22;42008;52.934;5.884;2022-12-10T01:51:20;0.20;99.90
56137;DHT22;42008;52.934;5.884;2022-12-10T01:53:47;0.30;99.90
56137;DHT22;42008;52.934;5.884;2022-12-10T01:56:16;1.00;99.90
56137;DHT22;42008;52.934;5.884;2022-12-10T01:58:42;0.40;99.90
56137;DHT22;42008;52.934;5.884;2022-12-10T02:01:20;-0.10;99.90
56137;DHT22;42008;52.934;5.884;2022-12-10T02:09:03;0.20;99.90
56137;DHT22;42008;52.934;5.884;2022-12-10T02:20:07;-0.30;99.90
56137;DHT22;42008;52.934;5.884;2022-12-10T02:22:54;-0.10;99.90
56137;DHT22;42008;52.934;5.884;2022-12-10T02:25:29;0.30;99.90
56137;DHT22;42008;52.934;5.884;2022-12-10T02:28:31;-0.40;99.90
56137;DHT22;42008;52.934;5.884;2022-12-10T02:31:00;-0.10;99.90
56137;DHT22;42008;52.934;5.884;2022-12-10T02:33:27;1.00;99.90
56137;DHT22;42008;52.934;5.884;2022-12-10T02:35:54;0.70;99.90
56137;DHT22;42008;52.934;5.884;2022-12-10T02:38:29;0.50;99.90
56137;DHT22;42008;52.934;5.884;2022-12-10T02:41:04;-0.30;99.90
56137;DHT22;42008;52.934;5.884;2022-12-10T02:43:30;0.00;99.90
56137;DHT22;42008;52.934;5.884;2022-12-10T02:45:58;1.20;99.90
56137;DHT22;42008;52.934;5.884;2022-12-10T02:48:25;1.50;99.90
56137;DHT22;42008;52.934;5.884;2022-12-10T02:50:51;-0.10;99.90
56137;DHT22;42008;52.934;5.884;2022-12-10T02:53:17;1.10;99.90
56137;DHT22;42008;52.934;5.884;2022-12-10T02:58:33;0.70;99.90
56137;DHT22;42008;52.934;5.884;2022-12-10T03:04:06;1.90;99.90
56137;DHT22;42008;52.934;5.884;2022-12-10T03:06:58;1.60;99.90
56137;DHT22;42008;52.934;5.884;2022-12-10T03:09:34;-0.10;99.90
56137;DHT22;42008;52.934;5.884;2022-12-10T03:12:07;1.80;99.90
56137;DHT22;42008;52.934;5.884;2022-12-10T03:14:37;2.00;99.90
56137;DHT22;42008;52.934;5.884;2022-12-10T03:17:03;1.50;99.90
56137;DHT22;42008;52.934;5.884;2022-12-10T03:19:40;1.40;99.90
56137;DHT22;42008;52.934;5.884;2022-12-10T03:22:08;1.40;99.90
56137;DHT22;42008;52.934;5.884;2022-12-10T03:24:37;1.60;99.90
56137;DHT22;42008;52.934;5.884;2022-12-10T03:27:04;2.00;99.90
56137;DHT22;42008;52.934;5.884;2022-12-10T03:29:40;1.20;99.90
56137;DHT22;42008;52.934;5.884;2022-12-10T03:32:07;1.70;99.90
56137;DHT22;42008;52.934;5.884;2022-12-10T03:34:34;1.00;99.90
56137;DHT22;42008;52.934;5.884;2022-12-10T03:37:00;1.80;99.90
56137;DHT22;42008;52.934;5.884;2022-12-10T03:39:26;1.80;99.90
56137;DHT22;42008;52.934;5.884;2022-12-10T03:41:52;1.50;99.90
56137;DHT22;42008;52.934;5.884;2022-12-10T03:46:54;0.90;99.90
56137;DHT22;42008;52.934;5.884;2022-12-10T03:49:19;1.80;99.90
56137;DHT22;42008;52.934;5.884;2022-12-10T03:51:45;2.20;99.90
56137;DHT22;42008;52.934;5.884;2022-12-10T03:54:10;1.20;99.90
56137;DHT22;42008;52.934;5.884;2022-12-10T03:56:37;3.20;99.90
56137;DHT22;42008;52.934;5.884;2022-12-10T03:59:03;2.30;99.90
56137;DHT22;42008;52.934;5.884;2022-12-10T04:01:28;1.10;99.90
56137;DHT22;42008;52.934;5.884;2022-12-10T04:03:54;2.50;99.90
56137;DHT22;42008;52.934;5.884;2022-12-10T04:06:20;2.30;99.90
56137;DHT22;42008;52.934;5.884;2022-12-10T04:08:46;2.30;99.90
56137;DHT22;42008;52.934;5.884;2022-12-10T04:11:14;2.90;99.90
56137;DHT22;42008;52.934;5.884;2022-12-10T04:13:40;2.30;99.90
56137;DHT22;42008;52.934;5.884;2022-12-10T04:16:25;3.00;99.90
56137;DHT22;42008;52.934;5.884;2022-12-10T04:19:00;2.90;99.90
56137;DHT22;42008;52.934;5.884;2022-12-10T04:21:26;2.30;99.90
56137;DHT22;42008;52.934;5.884;2022-12-10T04:24:11;3.00;99.90
56137;DHT22;42008;52.934;5.884;2022-12-10T04:26:57;2.70;99.90
56137;DHT22;42008;52.934;5.884;2022-12-10T04:29:26;3.10;99.90
56137;DHT22;42008;52.934;5.884;2022-12-10T04:31:52;2.90;99.90
56137;DHT22;42008;52.934;5.884;2022-12-10T04:34:18;2.80;99.90
56137;DHT22;42008;52.934;5.884;2022-12-10T04:36:44;2.60;99.90
56137;DHT22;42008;52.934;5.884;2022-12-10T04:39:10;1.90;99.90
56137;DHT22;42008;52.934;5.884;2022-12-10T04:41:41;2.70;99.90
56137;DHT22;42008;52.934;5.884;2022-12-10T04:44:08;2.70;99.90
56137;DHT22;42008;52.934;5.884;2022-12-10T04:46:34;2.40;99.90
56137;DHT22;42008;52.934;5.884;2022-12-10T04:49:00;3.30;99.90
56137;DHT22;42008;52.934;5.884;2022-12-10T04:51:25;2.90;99.90
56137;DHT22;42008;52.934;5.884;2022-12-10T04:53:51;2.90;99.90
56137;DHT22;42008;52.934;5.884;2022-12-10T04:56:17;2.50;99.90
56137;DHT22;42008;52.934;5.884;2022-12-10T04:58:42;2.50;99.90
56137;DHT22;42008;52.934;5.884;2022-12-10T05:01:10;2.50;99.90
56137;DHT22;42008;52.934;5.884;2022-12-10T05:03:36;3.00;99.90
56137;DHT22;42008;52.934;5.884;2022-12-10T05:06:03;2.70;99.90
56137;DHT22;42008;52.934;5.884;2022-12-10T05:08:29;2.70;99.90
56137;DHT22;42008;52.934;5.884;2022-12-10T05:11:00;2.50;99.90
56137;DHT22;42008;52.934;5.884;2022-12-10T05:13:25;2.50;99.90
56137;DHT22;42008;52.934;5.884;2022-12-10T05:15:51;3.20;99.90
56137;DHT22;42008;52.934;5.884;2022-12-10T05:18:16;2.90;99.90
56137;DHT22;42008;52.934;5.884;2022-12-10T05:20:42;2.60;99.90
56137;DHT22;42008;52.934;5.884;2022-12-10T05:23:08;2.70;99.90
56137;DHT22;42008;52.934;5.884;2022-12-10T05:26:01;2.60;99.90
56137;DHT22;42008;52.934;5.884;2022-12-10T05:28:29;3.00;99.90
56137;DHT22;42008;52.934;5.884;2022-12-10T05:30:56;2.50;99.90
56137;DHT22;42008;52.934;5.884;2022-12-10T05:33:21;2.10;99.90
56137;DHT22;42008;52.934;5.884;2022-12-10T05:35:59;3.10;99.90
56137;DHT22;42008;52.934;5.884;2022-12-10T05:38:26;3.20;99.90
56137;DHT22;42008;52.934;5.884;2022-12-10T05:40:52;2.30;99.90
56137;DHT22;42008;52.934;5.884;2022-12-10T05:43:17;2.90;99.90
56137;DHT22;42008;52.934;5.884;2022-12-10T05:45:43;3.40;99.90
56137;DHT22;42008;52.934;5.884;2022-12-10T05:48:14;2.30;99.90
56137;DHT22;42008;52.934;5.884;2022-12-10T05:50:40;2.50;99.90
56137;DHT22;42008;52.934;5.884;2022-12-10T05:53:06;2.30;99.90
56137;DHT22;42008;52.934;5.884;2022-12-10T05:55:32;2.90;99.90
56137;DHT22;42008;52.934;5.884;2022-12-10T05:57:59;1.70;99.90
56137;DHT22;42008;52.934;5.884;2022-12-10T06:00:26;1.90;99.90
56137;DHT22;42008;52.934;5.884;2022-12-10T06:02:52;3.30;99.90
56137;DHT22;42008;52.934;5.884;2022-12-10T06:05:18;1.60;99.90
56137;DHT22;42008;52.934;5.884;2022-12-10T06:07:43;2.80;99.90
56137;DHT22;42008;52.934;5.884;2022-12-10T06:10:09;2.40;99.90
56137;DHT22;42008;52.934;5.884;2022-12-10T06:12:36;2.80;99.90
56137;DHT22;42008;52.934;5.884;2022-12-10T06:15:02;1.80;99.90
56137;DHT22;42008;52.934;5.884;2022-12-10T06:17:27;3.00;99.90
56137;DHT22;42008;52.934;5.884;2022-12-10T06:19:53;2.70;99.90
56137;DHT22;42008;52.934;5.884;2022-12-10T06:22:18;2.90;99.90
56137;DHT22;42008;52.934;5.884;2022-12-10T06:24:44;2.20;99.90
56137;DHT22;42008;52.934;5.884;2022-12-10T06:27:09;2.70;99.90
56137;DHT22;42008;52.934;5.884;2022-12-10T06:29:35;2.20;99.90
56137;DHT22;42008;52.934;5.884;2022-12-10T06:32:01;3.10;99.90
56137;DHT22;42008;52.934;5.884;2022-12-10T06:34:26;1.80;99.90
56137;DHT22;42008;52.934;5.884;2022-12-10T06:36:52;2.20;99.90
56137;DHT22;42008;52.934;5.884;2022-12-10T06:39:17;3.20;99.90
56137;DHT22;42008;52.934;5.884;2022-12-10T06:41:43;2.10;99.90
56137;DHT22;42008;52.934;5.884;2022-12-10T06:44:10;2.60;99.90
56137;DHT22;42008;52.934;5.884;2022-12-10T06:46:36;3.00;99.90
56137;DHT22;42008;52.934;5.884;2022-12-10T06:49:02;2.60;99.90
56137;DHT22;42008;52.934;5.884;2022-12-10T06:51:28;2.10;99.90
56137;DHT22;42008;52.934;5.884;2022-12-10T06:53:55;1.70;99.90
56137;DHT22;42008;52.934;5.884;2022-12-10T06:56:21;2.60;99.90
56137;DHT22;42008;52.934;5.884;2022-12-10T06:58:47;2.00;99.90
56137;DHT22;42008;52.934;5.884;2022-12-10T07:03:38;1.90;99.90
56137;DHT22;42008;52.934;5.884;2022-12-10T07:06:05;3.10;99.90
56137;DHT22;42008;52.934;5.884;2022-12-10T07:08:31;1.50;99.90
56137;DHT22;42008;52.934;5.884;2022-12-10T07:10:57;1.80;99.90
56137;DHT22;42008;52.934;5.884;2022-12-10T07:13:23;2.70;99.90
56137;DHT22;42008;52.934;5.884;2022-12-10T07:15:49;1.70;99.90
56137;DHT22;42008;52.934;5.884;2022-12-10T07:18:14;2.00;99.90
56137;DHT22;42008;52.934;5.884;2022-12-10T07:20:40;2.60;99.90
56137;DHT22;42008;52.934;5.884;2022-12-10T07:23:06;2.30;99.90
56137;DHT22;42008;52.934;5.884;2022-12-10T07:25:32;1.80;99.90
56137;DHT22;42008;52.934;5.884;2022-12-10T07:27:58;1.70;99.90
56137;DHT22;42008;52.934;5.884;2022-12-10T07:30:24;2.60;99.90
56137;DHT22;42008;52.934;5.884;2022-12-10T07:32:49;1.40;99.90
56137;DHT22;42008;52.934;5.884;2022-12-10T07:35:15;1.40;99.90
56137;DHT22;42008;52.934;5.884;2022-12-10T07:37:41;1.70;99.90
56137;DHT22;42008;52.934;5.884;2022-12-10T07:40:07;2.10;99.90
56137;DHT22;42008;52.934;5.884;2022-12-10T07:42:32;1.50;99.90
56137;DHT22;42008;52.934;5.884;2022-12-10T07:44:58;2.60;99.90
56137;DHT22;42008;52.934;5.884;2022-12-10T07:47:23;1.30;99.90
56137;DHT22;42008;52.934;5.884;2022-12-10T07:49:49;1.90;99.90
56137;DHT22;42008;52.934;5.884;2022-12-10T07:52:15;2.10;99.90
56137;DHT22;42008;52.934;5.884;2022-12-10T07:54:40;1.10;99.90
56137;DHT22;42008;52.934;5.884;2022-12-10T07:57:06;1.60;99.90
56137;DHT22;42008;52.934;5.884;2022-12-10T07:59:31;2.20;99.90
56137;DHT22;42008;52.934;5.884;2022-12-10T08:01:57;1.50;99.90
56137;DHT22;42008;52.934;5.884;2022-12-10T08:04:23;2.50;99.90
56137;DHT22;42008;52.934;5.884;2022-12-10T08:06:48;1.20;99.90
56137;DHT22;42008;52.934;5.884;2022-12-10T08:09:14;2.10;99.90
56137;DHT22;42008;52.934;5.884;2022-12-10T08:11:40;1.30;99.90
56137;DHT22;42008;52.934;5.884;2022-12-10T08:14:05;2.40;99.90
56137;DHT22;42008;52.934;5.884;2022-12-10T08:16:31;2.80;99.90
56137;DHT22;42008;52.934;5.884;2022-12-10T08:18:59;2.60;99.90
56137;DHT22;42008;52.934;5.884;2022-12-10T08:21:27;1.60;99.90
56137;DHT22;42008;52.934;5.884;2022-12-10T08:23:54;2.80;99.90
56137;DHT22;42008;52.934;5.884;2022-12-10T08:26:23;1.60;99.90
56137;DHT22;42008;52.934;5.884;2022-12-10T08:28:50;1.40;99.90
56137;DHT22;42008;52.934;5.884;2022-12-10T08:31:18;2.20;99.90
56137;DHT22;42008;52.934;5.884;2022-12-10T08:33:44;1.20;99.90
56137;DHT22;42008;52.934;5.884;2022-12-10T08:36:12;1.60;99.90
56137;DHT22;42008;52.934;5.884;2022-12-10T08:38:39;1.20;99.90
56137;DHT22;42008;52.934;5.884;2022-12-10T08:41:11;2.70;99.90
56137;DHT22;42008;52.934;5.884;2022-12-10T08:43:37;2.00;99.90
56137;DHT22;42008;52.934;5.884;2022-12-10T08:46:03;1.80;99.90
56137;DHT22;42008;52.934;5.884;2022-12-10T08:48:29;2.10;99.90
56137;DHT22;42008;52.934;5.884;2022-12-10T08:50:55;1.80;99.90
56137;DHT22;42008;52.934;5.884;2022-12-10T08:53:20;2.40;99.90
56137;DHT22;42008;52.934;5.884;2022-12-10T08:55:49;2.90;99.90
56137;DHT22;42008;52.934;5.884;2022-12-10T08:58:16;1.30;99.90
56137;DHT22;42008;52.934;5.884;2022-12-10T09:00:42;2.80;99.90
56137;DHT22;42008;52.934;5.884;2022-12-10T09:03:08;2.80;99.90
56137;DHT22;42008;52.934;5.884;2022-12-10T09:05:35;2.40;99.90
56137;DHT22;42008;52.934;5.884;2022-12-10T09:08:00;2.90;99.90
56137;DHT22;42008;52.934;5.884;2022-12-10T09:10:57;2.90;99.90
56137;DHT22;42008;52.934;5.884;2022-12-10T09:13:23;2.50;99.90
56137;DHT22;42008;52.934;5.884;2022-12-10T09:15:50;1.40;99.90
56137;DHT22;42008;52.934;5.884;2022-12-10T09:18:16;3.00;99.90
56137;DHT22;42008;52.934;5.884;2022-12-10T09:20:42;3.20;99.90
56137;DHT22;42008;52.934;5.884;2022-12-10T09:23:07;2.80;99.90
56137;DHT22;42008;52.934;5.884;2022-12-10T09:25:33;1.40;99.90
56137;DHT22;42008;52.934;5.884;2022-12-10T09:27:58;3.20;99.90
56137;DHT22;42008;52.934;5.884;2022-12-10T09:30:24;2.60;99.90
56137;DHT22;42008;52.934;5.884;2022-12-10T09:32:49;2.10;99.90
56137;DHT22;42008;52.934;5.884;2022-12-10T09:35:15;3.10;99.90
56137;DHT22;42008;52.934;5.884;2022-12-10T09:37:41;2.10;99.90
56137;DHT22;42008;52.934;5.884;2022-12-10T09:40:06;2.30;99.90
56137;DHT22;42008;52.934;5.884;2022-12-10T09:43:02;2.80;99.90
56137;DHT22;42008;52.934;5.884;2022-12-10T09:48:40;3.10;99.90
56137;DHT22;42008;52.934;5.884;2022-12-10T09:51:19;2.50;99.90
56137;DHT22;42008;52.934;5.884;2022-12-10T09:53:47;2.70;99.90
56137;DHT22;42008;52.934;5.884;2022-12-10T09:56:23;1.30;99.90
56137;DHT22;42008;52.934;5.884;2022-12-10T09:58:51;2.20;99.90
56137;DHT22;42008;52.934;5.884;2022-12-10T10:01:19;2.70;99.90
56137;DHT22;42008;52.934;5.884;2022-12-10T10:03:48;2.30;99.90
56137;DHT22;42008;52.934;5.884;2022-12-10T10:06:14;2.60;99.90
56137;DHT22;42008;52.934;5.884;2022-12-10T10:08:46;2.10;99.90
56137;DHT22;42008;52.934;5.884;2022-12-10T10:11:14;2.30;99.90
56137;DHT22;42008;52.934;5.884;2022-12-10T10:13:45;2.40;99.90
56137;DHT22;42008;52.934;5.884;2022-12-10T10:16:20;2.90;99.90
56137;DHT22;42008;52.934;5.884;2022-12-10T10:18:58;1.90;99.90
56137;DHT22;42008;52.934;5.884;2022-12-10T10:21:41;3.20;99.90
56137;DHT22;42008;52.934;5.884;2022-12-10T10:24:12;3.40;99.90
56137;DHT22;42008;52.934;5.884;2022-12-10T10:26:39;2.70;99.90
56137;DHT22;42008;52.934;5.884;2022-12-10T10:29:10;2.90;99.90
56137;DHT22;42008;52.934;5.884;2022-12-10T10:31:39;1.50;99.90
56137;DHT22;42008;52.934;5.884;2022-12-10T10:34:17;2.80;99.90
56137;DHT22;42008;52.934;5.884;2022-12-10T10:36:43;1.70;99.90
56137;DHT22;42008;52.934;5.884;2022-12-10T10:41:42;2.90;99.90
56137;DHT22;42008;52.934;5.884;2022-12-10T10:44:28;3.00;99.90
56137;DHT22;42008;52.934;5.884;2022-12-10T10:46:59;2.20;99.90
56137;DHT22;42008;52.934;5.884;2022-12-10T10:49:32;2.40;99.90
56137;DHT22;42008;52.934;5.884;2022-12-10T10:52:16;2.60;99.90
56137;DHT22;42008;52.934;5.884;2022-12-10T10:54:42;3.00;99.90
56137;DHT22;42008;52.934;5.884;2022-12-10T10:57:32;2.30;99.90
56137;DHT22;42008;52.934;5.884;2022-12-10T11:00:20;2.20;99.90
56137;DHT22;42008;52.934;5.884;2022-12-10T11:02:48;3.20;99.90
56137;DHT22;42008;52.934;5.884;2022-12-10T11:08:02;2.20;99.90
56137;DHT22;42008;52.934;5.884;2022-12-10T11:10:29;3.50;99.90
56137;DHT22;42008;52.934;5.884;2022-12-10T11:13:03;2.90;99.90
56137;DHT22;42008;52.934;5.884;2022-12-10T11:15:38;2.80;99.90
56137;DHT22;42008;52.934;5.884;2022-12-10T11:21:24;2.20;99.90
56137;DHT22;42008;52.934;5.884;2022-12-10T11:23:54;3.50;99.90
56137;DHT22;42008;52.934;5.884;2022-12-10T11:37:37;2.50;99.90
56137;DHT22;42008;52.934;5.884;2022-12-10T11:46:08;2.30;99.90
56137;DHT22;42008;52.934;5.884;2022-12-10T11:48:59;2.30;99.90
56137;DHT22;42008;52.934;5.884;2022-12-10T11:51:30;3.10;99.90
56137;DHT22;42008;52.934;5.884;2022-12-10T11:54:03;2.80;99.90
56137;DHT22;42008;52.934;5.884;2022-12-10T11:56:39;2.90;99.90
56137;DHT22;42008;52.934;5.884;2022-12-10T12:13:12;2.90;99.90
56137;DHT22;42008;52.934;5.884;2022-12-10T12:15:53;3.00;99.90
56137;DHT22;42008;52.934;5.884;2022-12-10T12:18:48;2.60;99.90
56137;DHT22;42008;52.934;5.884;2022-12-10T12:21:17;2.70;99.90
56137;DHT22;42008;52.934;5.884;2022-12-10T12:26:27;3.50;99.90
56137;DHT22;42008;52.934;5.884;2022-12-10T12:31:37;1.50;99.90
56137;DHT22;42008;52.934;5.884;2022-12-10T12:36:48;2.80;99.90
56137;DHT22;42008;52.934;5.884;2022-12-10T12:39:27;2.80;99.90
56137;DHT22;42008;52.934;5.884;2022-12-10T12:46:55;1.50;99.90
56137;DHT22;42008;52.934;5.884;2022-12-10T12:49:24;2.90;99.90
56137;DHT22;42008;52.934;5.884;2022-12-10T12:51:55;2.60;99.90
56137;DHT22;42008;52.934;5.884;2022-12-10T12:54:21;2.90;99.90
56137;DHT22;42008;52.934;5.884;2022-12-10T12:57:12;3.10;99.90
56137;DHT22;42008;52.934;5.884;2022-12-10T13:05:04;2.30;99.90
56137;DHT22;42008;52.934;5.884;2022-12-10T13:07:33;3.70;99.90
56137;DHT22;42008;52.934;5.884;2022-12-10T13:12:49;2.30;99.90
56137;DHT22;42008;52.934;5.884;2022-12-10T13:15:41;3.10;99.90
56137;DHT22;42008;52.934;5.884;2022-12-10T13:28:52;2.90;99.90
56137;DHT22;42008;52.934;5.884;2022-12-10T13:31:22;3.00;99.90
56137;DHT22;42008;52.934;5.884;2022-12-10T13:39:32;2.60;99.90
56137;DHT22;42008;52.934;5.884;2022-12-10T13:55:38;3.40;99.90
56137;DHT22;42008;52.934;5.884;2022-12-10T14:00:49;2.90;99.90
56137;DHT22;42008;52.934;5.884;2022-12-10T14:08:45;2.40;99.90
56137;DHT22;42008;52.934;5.884;2022-12-10T14:11:21;2.40;99.90
56137;DHT22;42008;52.934;5.884;2022-12-10T14:13:49;3.00;99.90
56137;DHT22;42008;52.934;5.884;2022-12-10T14:16:20;2.60;99.90
56137;DHT22;42008;52.934;5.884;2022-12-10T14:19:00;3.50;99.90
56137;DHT22;42008;52.934;5.884;2022-12-10T14:21:31;3.00;99.90
56137;DHT22;42008;52.934;5.884;2022-12-10T14:23:57;2.50;99.90
56137;DHT22;42008;52.934;5.884;2022-12-10T14:26:29;2.50;99.90
56137;DHT22;42008;52.934;5.884;2022-12-10T14:31:32;2.40;99.90
56137;DHT22;42008;52.934;5.884;2022-12-10T14:34:07;2.60;99.90
56137;DHT22;42008;52.934;5.884;2022-12-10T14:36:38;3.30;99.90
56137;DHT22;42008;52.934;5.884;2022-12-10T14:39:19;3.40;99.90
56137;DHT22;42008;52.934;5.884;2022-12-10T14:41:47;2.60;99.90
56137;DHT22;42008;52.934;5.884;2022-12-10T14:44:15;2.30;99.90
56137;DHT22;42008;52.934;5.884;2022-12-10T14:46:41;3.60;99.90
56137;DHT22;42008;52.934;5.884;2022-12-10T14:49:23;2.90;99.90
56137;DHT22;42008;52.934;5.884;2022-12-10T14:51:50;2.90;99.90
56137;DHT22;42008;52.934;5.884;2022-12-10T14:54:32;2.30;99.90
56137;DHT22;42008;52.934;5.884;2022-12-10T14:57:02;3.50;99.90
56137;DHT22;42008;52.934;5.884;2022-12-10T14:59:42;2.90;99.90
56137;DHT22;42008;52.934;5.884;2022-12-10T15:02:26;2.60;99.90
56137;DHT22;42008;52.934;5.884;2022-12-10T15:04:53;1.60;99.90
56137;DHT22;42008;52.934;5.884;2022-12-10T15:07:30;3.20;99.90
56137;DHT22;42008;52.934;5.884;2022-12-10T15:09:58;3.30;99.90
56137;DHT22;42008;52.934;5.884;2022-12-10T15:12:37;3.40;99.90
56137;DHT22;42008;52.934;5.884;2022-12-10T15:15:14;3.00;99.90
56137;DHT22;42008;52.934;5.884;2022-12-10T15:17:52;2.70;99.90
56137;DHT22;42008;52.934;5.884;2022-12-10T15:20:22;3.40;99.90
56137;DHT22;42008;52.934;5.884;2022-12-10T15:22:48;3.00;99.90
56137;DHT22;42008;52.934;5.884;2022-12-10T15:25:22;2.40;99.90
56137;DHT22;42008;52.934;5.884;2022-12-10T15:28:19;3.20;99.90
56137;DHT22;42008;52.934;5.884;2022-12-10T15:30:46;2.40;99.90
56137;DHT22;42008;52.934;5.884;2022-12-10T15:33:31;3.10;99.90
56137;DHT22;42008;52.934;5.884;2022-12-10T15:35:58;3.40;99.90
56137;DHT22;42008;52.934;5.884;2022-12-10T15:38:24;3.50;99.90
56137;DHT22;42008;52.934;5.884;2022-12-10T15:40:50;2.50;99.90
56137;DHT22;42008;52.934;5.884;2022-12-10T15:43:29;3.00;99.90
56137;DHT22;42008;52.934;5.884;2022-12-10T15:45:56;3.30;99.90
56137;DHT22;42008;52.934;5.884;2022-12-10T15:48:28;2.80;99.90
56137;DHT22;42008;52.934;5.884;2022-12-10T15:50:53;2.40;99.90
56137;DHT22;42008;52.934;5.884;2022-12-10T15:53:29;3.00;99.90
56137;DHT22;42008;52.934;5.884;2022-12-10T15:56:00;2.80;99.90
56137;DHT22;42008;52.934;5.884;2022-12-10T15:58:25;3.00;99.90
56137;DHT22;42008;52.934;5.884;2022-12-10T16:00:51;3.00;99.90
56137;DHT22;42008;52.934;5.884;2022-12-10T16:03:17;2.40;99.90
56137;DHT22;42008;52.934;5.884;2022-12-10T16:05:45;2.60;99.90
56137;DHT22;42008;52.934;5.884;2022-12-10T16:08:23;2.80;99.90
56137;DHT22;42008;52.934;5.884;2022-12-10T16:10:51;1.90;99.90
56137;DHT22;42008;52.934;5.884;2022-12-10T16:13:24;2.50;99.90
56137;DHT22;42008;52.934;5.884;2022-12-10T16:15:58;3.10;99.90
56137;DHT22;42008;52.934;5.884;2022-12-10T16:18:25;2.10;99.90
56137;DHT22;42008;52.934;5.884;2022-12-10T16:20:51;2.10;99.90
56137;DHT22;42008;52.934;5.884;2022-12-10T16:23:16;3.20;99.90
56137;DHT22;42008;52.934;5.884;2022-12-10T16:25:43;2.00;99.90
56137;DHT22;42008;52.934;5.884;2022-12-10T16:28:19;2.60;99.90
56137;DHT22;42008;52.934;5.884;2022-12-10T16:33:12;2.60;99.90
56137;DHT22;42008;52.934;5.884;2022-12-10T16:35:38;2.50;99.90
56137;DHT22;42008;52.934;5.884;2022-12-10T16:38:04;2.80;99.90
56137;DHT22;42008;52.934;5.884;2022-12-10T16:40:30;3.30;99.90
56137;DHT22;42008;52.934;5.884;2022-12-10T16:42:56;2.60;99.90
56137;DHT22;42008;52.934;5.884;2022-12-10T16:45:26;2.70;99.90
56137;DHT22;42008;52.934;5.884;2022-12-10T16:47:52;3.00;99.90
56137;DHT22;42008;52.934;5.884;2022-12-10T16:50:18;3.10;99.90
56137;DHT22;42008;52.934;5.884;2022-12-10T16:52:45;2.70;99.90
56137;DHT22;42008;52.934;5.884;2022-12-10T16:55:19;2.60;99.90
56137;DHT22;42008;52.934;5.884;2022-12-10T16:57:46;2.10;99.90
56137;DHT22;42008;52.934;5.884;2022-12-10T17:00:14;3.40;99.90
56137;DHT22;42008;52.934;5.884;2022-12-10T17:02:41;1.90;99.90
56137;DHT22;42008;52.934;5.884;2022-12-10T17:05:27;2.30;99.90
56137;DHT22;42008;52.934;5.884;2022-12-10T17:07:54;1.50;99.90
56137;DHT22;42008;52.934;5.884;2022-12-10T17:10:19;3.00;99.90
56137;DHT22;42008;52.934;5.884;2022-12-10T17:13:10;2.20;99.90
56137;DHT22;42008;52.934;5.884;2022-12-10T17:15:37;2.70;99.90
56137;DHT22;42008;52.934;5.884;2022-12-10T17:18:03;1.70;99.90
56137;DHT22;42008;52.934;5.884;2022-12-10T17:20:29;1.60;99.90
56137;DHT22;42008;52.934;5.884;2022-12-10T17:22:55;1.50;99.90
56137;DHT22;42008;52.934;5.884;2022-12-10T17:25:20;2.40;99.90
56137;DHT22;42008;52.934;5.884;2022-12-10T17:27:46;2.00;99.90
56137;DHT22;42008;52.934;5.884;2022-12-10T17:30:13;2.00;99.90
56137;DHT22;42008;52.934;5.884;2022-12-10T17:32:39;3.30;99.90
56137;DHT22;42008;52.934;5.884;2022-12-10T17:35:05;2.80;99.90
56137;DHT22;42008;52.934;5.884;2022-12-10T17:37:34;3.10;99.90
56137;DHT22;42008;52.934;5.884;2022-12-10T17:40:00;2.60;99.90
56137;DHT22;42008;52.934;5.884;2022-12-10T17:42:25;2.00;99.90
56137;DHT22;42008;52.934;5.884;2022-12-10T17:44:51;2.60;99.90
56137;DHT22;42008;52.934;5.884;2022-12-10T17:47:22;2.60;99.90
56137;DHT22;42008;52.934;5.884;2022-12-10T17:49:48;3.30;99.90
56137;DHT22;42008;52.934;5.884;2022-12-10T17:52:14;1.90;99.90
56137;DHT22;42008;52.934;5.884;2022-12-10T17:54:39;2.70;99.90
56137;DHT22;42008;52.934;5.884;2022-12-10T17:57:11;1.40;99.90
56137;DHT22;42008;52.934;5.884;2022-12-10T17:59:38;1.60;99.90
56137;DHT22;42008;52.934;5.884;2022-12-10T18:02:11;1.80;99.90
56137;DHT22;42008;52.934;5.884;2022-12-10T18:04:37;2.50;99.90
56137;DHT22;42008;52.934;5.884;2022-12-10T18:07:08;3.00;99.90
56137;DHT22;42008;52.934;5.884;2022-12-10T18:09:34;1.20;99.90
56137;DHT22;42008;52.934;5.884;2022-12-10T18:11:59;1.30;99.90